sensor_id;sensor_type;location;lat;lon;timestamp;P1;durP1;ratioP1;P2;durP2;ratioP2
16308;SDS011;8263;48.880;9.276;2023-06-26T00:00:02;106.45;;;99.25;;
16308;SDS011;8263;48.880;9.276;2023-06-26T00:02:31;106.82;;;99.72;;
16308;SDS011;8263;48.880;9.276;2023-06-26T00:04:58;106.32;;;99.07;;
16308;SDS011;8263;48.880;9.276;2023-06-26T00:07:27;105.40;;;98.40;;
16308;SDS011;8263;48.880;9.276;2023-06-26T00:09:54;105.28;;;98.28;;
16308;SDS011;8263;48.880;9.276;2023-06-26T00:12:21;107.32;;;100.22;;
16308;SDS011;8263;48.880;9.276;2023-06-26T00:14:47;108.60;;;101.50;;
16308;SDS011;8263;48.880;9.276;2023-06-26T00:17:13;106.90;;;99.80;;
16308;SDS011;8263;48.880;9.276;2023-06-26T00:19:41;108.10;;;100.95;;
16308;SDS011;8263;48.880;9.276;2023-06-26T00:22:08;108.05;;;100.72;;
16308;SDS011;8263;48.880;9.276;2023-06-26T00:24:34;109.90;;;102.47;;
16308;SDS011;8263;48.880;9.276;2023-06-26T00:27:01;108.00;;;100.82;;
16308;SDS011;8263;48.880;9.276;2023-06-26T00:29:27;108.50;;;101.32;;
16308;SDS011;8263;48.880;9.276;2023-06-26T00:31:54;107.63;;;100.45;;
16308;SDS011;8263;48.880;9.276;2023-06-26T00:34:20;107.47;;;100.40;;
16308;SDS011;8263;48.880;9.276;2023-06-26T00:36:48;107.28;;;100.10;;
16308;SDS011;8263;48.880;9.276;2023-06-26T00:39:15;108.38;;;101.18;;
16308;SDS011;8263;48.880;9.276;2023-06-26T00:41:41;109.07;;;101.85;;
16308;SDS011;8263;48.880;9.276;2023-06-26T00:44:08;111.22;;;103.45;;
16308;SDS011;8263;48.880;9.276;2023-06-26T00:46:35;105.45;;;98.55;;
16308;SDS011;8263;48.880;9.276;2023-06-26T00:49:02;110.10;;;102.80;;
16308;SDS011;8263;48.880;9.276;2023-06-26T00:51:30;108.80;;;101.60;;
16308;SDS011;8263;48.880;9.276;2023-06-26T00:53:58;110.13;;;102.82;;
16308;SDS011;8263;48.880;9.276;2023-06-26T00:56:25;108.72;;;101.53;;
16308;SDS011;8263;48.880;9.276;2023-06-26T00:58:52;108.13;;;101.03;;
16308;SDS011;8263;48.880;9.276;2023-06-26T01:01:18;109.13;;;101.93;;
16308;SDS011;8263;48.880;9.276;2023-06-26T01:03:48;109.47;;;102.15;;
16308;SDS011;8263;48.880;9.276;2023-06-26T01:06:16;111.60;;;104.13;;
16308;SDS011;8263;48.880;9.276;2023-06-26T01:08:43;110.10;;;102.78;;
16308;SDS011;8263;48.880;9.276;2023-06-26T01:11:11;110.43;;;102.95;;
16308;SDS011;8263;48.880;9.276;2023-06-26T01:13:39;109.25;;;101.97;;
16308;SDS011;8263;48.880;9.276;2023-06-26T01:16:05;110.45;;;103.05;;
16308;SDS011;8263;48.880;9.276;2023-06-26T01:18:32;110.93;;;103.50;;
16308;SDS011;8263;48.880;9.276;2023-06-26T01:21:03;108.88;;;101.63;;
16308;SDS011;8263;48.880;9.276;2023-06-26T01:23:30;110.70;;;103.18;;
16308;SDS011;8263;48.880;9.276;2023-06-26T01:28:50;114.18;;;106.60;;
16308;SDS011;8263;48.880;9.276;2023-06-26T01:31:17;111.18;;;103.70;;
16308;SDS011;8263;48.880;9.276;2023-06-26T01:33:45;113.30;;;105.78;;
16308;SDS011;8263;48.880;9.276;2023-06-26T01:36:12;112.35;;;104.75;;
16308;SDS011;8263;48.880;9.276;2023-06-26T01:38:38;113.25;;;105.65;;
16308;SDS011;8263;48.880;9.276;2023-06-26T01:41:05;112.18;;;104.68;;
16308;SDS011;8263;48.880;9.276;2023-06-26T01:43:35;112.60;;;105.10;;
16308;SDS011;8263;48.880;9.276;2023-06-26T01:46:05;113.22;;;105.72;;
16308;SDS011;8263;48.880;9.276;2023-06-26T01:48:33;114.47;;;106.78;;
16308;SDS011;8263;48.880;9.276;2023-06-26T01:51:01;112.28;;;104.70;;
16308;SDS011;8263;48.880;9.276;2023-06-26T01:53:30;112.38;;;104.88;;
16308;SDS011;8263;48.880;9.276;2023-06-26T01:55:59;114.28;;;106.45;;
16308;SDS011;8263;48.880;9.276;2023-06-26T01:58:27;112.97;;;105.47;;
16308;SDS011;8263;48.880;9.276;2023-06-26T02:00:54;114.95;;;107.25;;
16308;SDS011;8263;48.880;9.276;2023-06-26T02:03:22;113.63;;;106.10;;
16308;SDS011;8263;48.880;9.276;2023-06-26T02:05:49;113.20;;;105.70;;
16308;SDS011;8263;48.880;9.276;2023-06-26T02:08:15;113.43;;;105.88;;
16308;SDS011;8263;48.880;9.276;2023-06-26T02:10:42;113.00;;;105.50;;
16308;SDS011;8263;48.880;9.276;2023-06-26T02:13:08;112.45;;;104.95;;
16308;SDS011;8263;48.880;9.276;2023-06-26T02:15:35;115.57;;;107.78;;
16308;SDS011;8263;48.880;9.276;2023-06-26T02:18:01;114.13;;;106.55;;
16308;SDS011;8263;48.880;9.276;2023-06-26T02:20:30;113.03;;;105.43;;
16308;SDS011;8263;48.880;9.276;2023-06-26T02:22:56;113.22;;;105.63;;
16308;SDS011;8263;48.880;9.276;2023-06-26T02:25:23;115.32;;;107.55;;
16308;SDS011;8263;48.880;9.276;2023-06-26T02:27:49;112.82;;;105.32;;
16308;SDS011;8263;48.880;9.276;2023-06-26T02:30:16;114.70;;;107.03;;
16308;SDS011;8263;48.880;9.276;2023-06-26T02:32:42;115.95;;;108.05;;
16308;SDS011;8263;48.880;9.276;2023-06-26T02:35:09;114.97;;;107.25;;
16308;SDS011;8263;48.880;9.276;2023-06-26T02:37:39;115.72;;;107.85;;
16308;SDS011;8263;48.880;9.276;2023-06-26T02:40:06;115.43;;;107.65;;
16308;SDS011;8263;48.880;9.276;2023-06-26T02:42:34;115.50;;;107.70;;
16308;SDS011;8263;48.880;9.276;2023-06-26T02:45:01;115.72;;;107.93;;
16308;SDS011;8263;48.880;9.276;2023-06-26T02:47:27;115.78;;;107.95;;
16308;SDS011;8263;48.880;9.276;2023-06-26T02:49:55;115.07;;;107.40;;
16308;SDS011;8263;48.880;9.276;2023-06-26T02:52:22;114.90;;;107.20;;
16308;SDS011;8263;48.880;9.276;2023-06-26T02:54:50;116.25;;;108.45;;
16308;SDS011;8263;48.880;9.276;2023-06-26T02:57:17;113.93;;;106.25;;
16308;SDS011;8263;48.880;9.276;2023-06-26T02:59:43;117.07;;;109.18;;
16308;SDS011;8263;48.880;9.276;2023-06-26T03:02:10;115.05;;;107.18;;
16308;SDS011;8263;48.880;9.276;2023-06-26T03:04:37;117.32;;;109.32;;
16308;SDS011;8263;48.880;9.276;2023-06-26T03:07:03;116.70;;;108.72;;
16308;SDS011;8263;48.880;9.276;2023-06-26T03:09:30;114.43;;;106.82;;
16308;SDS011;8263;48.880;9.276;2023-06-26T03:11:58;116.13;;;108.25;;
16308;SDS011;8263;48.880;9.276;2023-06-26T03:14:25;116.97;;;108.90;;
16308;SDS011;8263;48.880;9.276;2023-06-26T03:16:55;117.13;;;109.22;;
16308;SDS011;8263;48.880;9.276;2023-06-26T03:19:23;117.97;;;110.07;;
16308;SDS011;8263;48.880;9.276;2023-06-26T03:21:49;117.78;;;109.68;;
16308;SDS011;8263;48.880;9.276;2023-06-26T03:24:16;116.47;;;108.68;;
16308;SDS011;8263;48.880;9.276;2023-06-26T03:26:43;116.47;;;108.70;;
16308;SDS011;8263;48.880;9.276;2023-06-26T03:29:11;116.47;;;108.68;;
16308;SDS011;8263;48.880;9.276;2023-06-26T03:31:38;116.55;;;108.70;;
16308;SDS011;8263;48.880;9.276;2023-06-26T03:34:04;116.80;;;108.72;;
16308;SDS011;8263;48.880;9.276;2023-06-26T03:36:31;116.80;;;108.90;;
16308;SDS011;8263;48.880;9.276;2023-06-26T03:38:58;117.72;;;109.75;;
16308;SDS011;8263;48.880;9.276;2023-06-26T03:41:25;118.22;;;110.20;;
16308;SDS011;8263;48.880;9.276;2023-06-26T03:43:52;120.00;;;111.80;;
16308;SDS011;8263;48.880;9.276;2023-06-26T03:46:21;118.05;;;110.05;;
16308;SDS011;8263;48.880;9.276;2023-06-26T03:48:47;116.15;;;108.35;;
16308;SDS011;8263;48.880;9.276;2023-06-26T03:51:14;117.22;;;109.18;;
16308;SDS011;8263;48.880;9.276;2023-06-26T03:53:41;117.18;;;109.20;;
16308;SDS011;8263;48.880;9.276;2023-06-26T03:56:08;118.10;;;109.95;;
16308;SDS011;8263;48.880;9.276;2023-06-26T03:58:34;119.30;;;111.30;;
16308;SDS011;8263;48.880;9.276;2023-06-26T04:01:01;119.53;;;111.38;;
16308;SDS011;8263;48.880;9.276;2023-06-26T04:03:29;118.78;;;110.82;;
16308;SDS011;8263;48.880;9.276;2023-06-26T04:05:56;120.05;;;111.95;;
16308;SDS011;8263;48.880;9.276;2023-06-26T04:08:23;117.72;;;109.70;;
16308;SDS011;8263;48.880;9.276;2023-06-26T04:10:51;118.07;;;110.07;;
16308;SDS011;8263;48.880;9.276;2023-06-26T04:13:18;119.40;;;111.30;;
16308;SDS011;8263;48.880;9.276;2023-06-26T04:15:45;119.82;;;111.55;;
16308;SDS011;8263;48.880;9.276;2023-06-26T04:18:11;120.55;;;112.13;;
16308;SDS011;8263;48.880;9.276;2023-06-26T04:20:41;119.85;;;111.55;;
16308;SDS011;8263;48.880;9.276;2023-06-26T04:23:10;120.05;;;111.47;;
16308;SDS011;8263;48.880;9.276;2023-06-26T04:25:36;119.88;;;111.47;;
16308;SDS011;8263;48.880;9.276;2023-06-26T04:28:03;120.68;;;112.28;;
16308;SDS011;8263;48.880;9.276;2023-06-26T04:30:30;117.80;;;109.80;;
16308;SDS011;8263;48.880;9.276;2023-06-26T04:32:57;120.07;;;111.93;;
16308;SDS011;8263;48.880;9.276;2023-06-26T04:35:23;120.47;;;112.05;;
16308;SDS011;8263;48.880;9.276;2023-06-26T04:37:51;120.05;;;111.85;;
16308;SDS011;8263;48.880;9.276;2023-06-26T04:40:18;119.03;;;110.82;;
16308;SDS011;8263;48.880;9.276;2023-06-26T04:42:44;120.15;;;111.95;;
16308;SDS011;8263;48.880;9.276;2023-06-26T04:45:11;119.40;;;111.30;;
16308;SDS011;8263;48.880;9.276;2023-06-26T04:47:38;119.25;;;110.95;;
16308;SDS011;8263;48.880;9.276;2023-06-26T04:50:05;121.53;;;113.13;;
16308;SDS011;8263;48.880;9.276;2023-06-26T04:52:33;119.60;;;111.40;;
16308;SDS011;8263;48.880;9.276;2023-06-26T04:55:02;117.15;;;109.13;;
16308;SDS011;8263;48.880;9.276;2023-06-26T04:57:28;120.45;;;112.13;;
16308;SDS011;8263;48.880;9.276;2023-06-26T04:59:55;121.32;;;112.80;;
16308;SDS011;8263;48.880;9.276;2023-06-26T05:02:21;120.97;;;112.72;;
16308;SDS011;8263;48.880;9.276;2023-06-26T05:04:48;121.15;;;112.95;;
16308;SDS011;8263;48.880;9.276;2023-06-26T05:07:15;122.00;;;113.60;;
16308;SDS011;8263;48.880;9.276;2023-06-26T05:09:41;122.43;;;114.05;;
16308;SDS011;8263;48.880;9.276;2023-06-26T05:12:09;122.18;;;113.60;;
16308;SDS011;8263;48.880;9.276;2023-06-26T05:14:37;121.32;;;113.13;;
16308;SDS011;8263;48.880;9.276;2023-06-26T05:17:04;121.35;;;113.05;;
16308;SDS011;8263;48.880;9.276;2023-06-26T05:19:31;121.25;;;112.75;;
16308;SDS011;8263;48.880;9.276;2023-06-26T05:21:58;121.05;;;112.70;;
16308;SDS011;8263;48.880;9.276;2023-06-26T05:24:26;121.15;;;112.85;;
16308;SDS011;8263;48.880;9.276;2023-06-26T05:26:53;121.15;;;112.82;;
16308;SDS011;8263;48.880;9.276;2023-06-26T05:29:22;121.32;;;112.97;;
16308;SDS011;8263;48.880;9.276;2023-06-26T05:31:49;121.38;;;113.07;;
16308;SDS011;8263;48.880;9.276;2023-06-26T05:34:16;120.05;;;111.80;;
16308;SDS011;8263;48.880;9.276;2023-06-26T05:36:43;122.88;;;114.38;;
16308;SDS011;8263;48.880;9.276;2023-06-26T05:39:10;120.38;;;112.10;;
16308;SDS011;8263;48.880;9.276;2023-06-26T05:41:37;122.18;;;113.78;;
16308;SDS011;8263;48.880;9.276;2023-06-26T05:44:04;120.97;;;112.68;;
16308;SDS011;8263;48.880;9.276;2023-06-26T05:46:32;121.63;;;113.22;;
16308;SDS011;8263;48.880;9.276;2023-06-26T05:48:58;121.78;;;113.47;;
16308;SDS011;8263;48.880;9.276;2023-06-26T05:51:26;120.40;;;112.20;;
16308;SDS011;8263;48.880;9.276;2023-06-26T05:53:53;119.15;;;111.05;;
16308;SDS011;8263;48.880;9.276;2023-06-26T05:56:20;119.80;;;111.53;;
16308;SDS011;8263;48.880;9.276;2023-06-26T05:58:47;121.05;;;112.85;;
16308;SDS011;8263;48.880;9.276;2023-06-26T06:01:13;121.00;;;112.55;;
16308;SDS011;8263;48.880;9.276;2023-06-26T06:03:41;119.60;;;111.30;;
16308;SDS011;8263;48.880;9.276;2023-06-26T06:06:08;120.40;;;112.13;;
16308;SDS011;8263;48.880;9.276;2023-06-26T06:08:35;120.03;;;111.65;;
16308;SDS011;8263;48.880;9.276;2023-06-26T06:11:01;119.22;;;111.13;;
16308;SDS011;8263;48.880;9.276;2023-06-26T06:13:28;119.65;;;111.55;;
16308;SDS011;8263;48.880;9.276;2023-06-26T06:15:54;120.72;;;112.15;;
16308;SDS011;8263;48.880;9.276;2023-06-26T06:18:21;120.70;;;112.38;;
16308;SDS011;8263;48.880;9.276;2023-06-26T06:20:49;119.35;;;111.28;;
16308;SDS011;8263;48.880;9.276;2023-06-26T06:23:16;119.28;;;111.07;;
16308;SDS011;8263;48.880;9.276;2023-06-26T06:25:42;118.43;;;110.13;;
16308;SDS011;8263;48.880;9.276;2023-06-26T06:28:09;117.20;;;109.28;;
16308;SDS011;8263;48.880;9.276;2023-06-26T06:30:35;117.97;;;109.93;;
16308;SDS011;8263;48.880;9.276;2023-06-26T06:33:02;118.45;;;110.28;;
16308;SDS011;8263;48.880;9.276;2023-06-26T06:35:29;117.60;;;109.65;;
16308;SDS011;8263;48.880;9.276;2023-06-26T06:37:57;115.90;;;107.95;;
16308;SDS011;8263;48.880;9.276;2023-06-26T06:40:24;119.68;;;111.57;;
16308;SDS011;8263;48.880;9.276;2023-06-26T06:42:51;118.68;;;110.47;;
16308;SDS011;8263;48.880;9.276;2023-06-26T06:45:17;115.25;;;107.45;;
16308;SDS011;8263;48.880;9.276;2023-06-26T06:47:44;119.70;;;111.50;;
16308;SDS011;8263;48.880;9.276;2023-06-26T06:50:11;115.13;;;107.32;;
16308;SDS011;8263;48.880;9.276;2023-06-26T06:52:39;116.80;;;108.80;;
16308;SDS011;8263;48.880;9.276;2023-06-26T06:55:08;113.93;;;106.22;;
16308;SDS011;8263;48.880;9.276;2023-06-26T06:57:34;116.55;;;108.70;;
16308;SDS011;8263;48.880;9.276;2023-06-26T07:00:03;113.65;;;106.03;;
16308;SDS011;8263;48.880;9.276;2023-06-26T07:02:32;114.90;;;107.20;;
16308;SDS011;8263;48.880;9.276;2023-06-26T07:04:58;114.90;;;107.20;;
16308;SDS011;8263;48.880;9.276;2023-06-26T07:07:28;115.05;;;107.28;;
16308;SDS011;8263;48.880;9.276;2023-06-26T07:09:54;114.93;;;107.22;;
16308;SDS011;8263;48.880;9.276;2023-06-26T07:12:23;114.10;;;106.35;;
16308;SDS011;8263;48.880;9.276;2023-06-26T07:14:50;113.07;;;105.28;;
16308;SDS011;8263;48.880;9.276;2023-06-26T07:17:16;112.95;;;105.40;;
16308;SDS011;8263;48.880;9.276;2023-06-26T07:19:43;112.50;;;105.00;;
16308;SDS011;8263;48.880;9.276;2023-06-26T07:22:09;110.68;;;103.28;;
16308;SDS011;8263;48.880;9.276;2023-06-26T07:24:36;111.70;;;104.05;;
16308;SDS011;8263;48.880;9.276;2023-06-26T07:27:03;108.03;;;100.63;;
16308;SDS011;8263;48.880;9.276;2023-06-26T07:29:31;110.85;;;103.35;;
16308;SDS011;8263;48.880;9.276;2023-06-26T07:31:58;108.57;;;101.30;;
16308;SDS011;8263;48.880;9.276;2023-06-26T07:34:25;107.43;;;100.32;;
16308;SDS011;8263;48.880;9.276;2023-06-26T07:36:51;110.38;;;102.97;;
16308;SDS011;8263;48.880;9.276;2023-06-26T07:39:17;107.68;;;100.47;;
16308;SDS011;8263;48.880;9.276;2023-06-26T07:41:44;111.63;;;104.13;;
16308;SDS011;8263;48.880;9.276;2023-06-26T07:44:11;107.85;;;100.78;;
16308;SDS011;8263;48.880;9.276;2023-06-26T07:46:39;107.30;;;100.18;;
16308;SDS011;8263;48.880;9.276;2023-06-26T07:49:06;107.40;;;100.30;;
16308;SDS011;8263;48.880;9.276;2023-06-26T07:51:32;104.05;;;97.15;;
16308;SDS011;8263;48.880;9.276;2023-06-26T07:53:58;104.35;;;97.25;;
16308;SDS011;8263;48.880;9.276;2023-06-26T07:56:25;107.70;;;100.45;;
16308;SDS011;8263;48.880;9.276;2023-06-26T07:58:52;105.38;;;98.47;;
16308;SDS011;8263;48.880;9.276;2023-06-26T08:01:19;105.22;;;98.22;;
16308;SDS011;8263;48.880;9.276;2023-06-26T08:03:47;103.65;;;96.70;;
16308;SDS011;8263;48.880;9.276;2023-06-26T08:06:13;104.90;;;98.00;;
16308;SDS011;8263;48.880;9.276;2023-06-26T08:08:40;103.05;;;96.28;;
16308;SDS011;8263;48.880;9.276;2023-06-26T08:11:07;102.72;;;95.97;;
16308;SDS011;8263;48.880;9.276;2023-06-26T08:13:33;103.07;;;96.32;;
16308;SDS011;8263;48.880;9.276;2023-06-26T08:16:00;103.05;;;96.35;;
16308;SDS011;8263;48.880;9.276;2023-06-26T08:18:26;104.07;;;97.13;;
16308;SDS011;8263;48.880;9.276;2023-06-26T08:20:54;101.93;;;95.15;;
16308;SDS011;8263;48.880;9.276;2023-06-26T08:23:21;100.68;;;93.88;;
16308;SDS011;8263;48.880;9.276;2023-06-26T08:25:49;101.00;;;94.05;;
16308;SDS011;8263;48.880;9.276;2023-06-26T08:28:16;97.88;;;91.38;;
16308;SDS011;8263;48.880;9.276;2023-06-26T08:30:42;98.38;;;91.85;;
16308;SDS011;8263;48.880;9.276;2023-06-26T08:33:09;100.80;;;94.18;;
16308;SDS011;8263;48.880;9.276;2023-06-26T08:35:37;99.93;;;93.32;;
16308;SDS011;8263;48.880;9.276;2023-06-26T08:38:05;98.85;;;92.35;;
16308;SDS011;8263;48.880;9.276;2023-06-26T08:40:34;96.60;;;90.25;;
16308;SDS011;8263;48.880;9.276;2023-06-26T08:43:01;96.45;;;90.10;;
16308;SDS011;8263;48.880;9.276;2023-06-26T08:45:29;97.28;;;90.82;;
16308;SDS011;8263;48.880;9.276;2023-06-26T08:47:55;97.18;;;90.75;;
16308;SDS011;8263;48.880;9.276;2023-06-26T08:50:26;95.90;;;89.68;;
16308;SDS011;8263;48.880;9.276;2023-06-26T08:52:56;95.95;;;89.65;;
16308;SDS011;8263;48.880;9.276;2023-06-26T08:55:27;93.57;;;87.47;;
16308;SDS011;8263;48.880;9.276;2023-06-26T08:57:54;97.38;;;90.97;;
16308;SDS011;8263;48.880;9.276;2023-06-26T09:00:22;95.03;;;88.82;;
16308;SDS011;8263;48.880;9.276;2023-06-26T09:02:48;91.78;;;85.55;;
16308;SDS011;8263;48.880;9.276;2023-06-26T09:05:15;93.65;;;87.55;;
16308;SDS011;8263;48.880;9.276;2023-06-26T09:07:42;93.95;;;87.85;;
16308;SDS011;8263;48.880;9.276;2023-06-26T09:10:08;93.22;;;87.13;;
16308;SDS011;8263;48.880;9.276;2023-06-26T09:12:36;91.57;;;85.68;;
16308;SDS011;8263;48.880;9.276;2023-06-26T09:15:03;91.20;;;85.10;;
16308;SDS011;8263;48.880;9.276;2023-06-26T09:17:33;91.75;;;85.78;;
16308;SDS011;8263;48.880;9.276;2023-06-26T09:19:59;89.70;;;83.85;;
16308;SDS011;8263;48.880;9.276;2023-06-26T09:22:26;91.95;;;85.95;;
16308;SDS011;8263;48.880;9.276;2023-06-26T09:24:52;88.95;;;83.25;;
16308;SDS011;8263;48.880;9.276;2023-06-26T09:27:20;90.85;;;84.95;;
16308;SDS011;8263;48.880;9.276;2023-06-26T09:29:49;87.47;;;81.78;;
16308;SDS011;8263;48.880;9.276;2023-06-26T09:32:19;91.72;;;85.70;;
16308;SDS011;8263;48.880;9.276;2023-06-26T09:34:47;89.70;;;83.82;;
16308;SDS011;8263;48.880;9.276;2023-06-26T09:37:14;87.18;;;81.47;;
16308;SDS011;8263;48.880;9.276;2023-06-26T09:39:42;88.25;;;82.45;;
16308;SDS011;8263;48.880;9.276;2023-06-26T09:42:09;86.70;;;81.10;;
16308;SDS011;8263;48.880;9.276;2023-06-26T09:44:36;86.95;;;81.38;;
16308;SDS011;8263;48.880;9.276;2023-06-26T09:47:04;83.10;;;77.80;;
16308;SDS011;8263;48.880;9.276;2023-06-26T09:49:31;87.13;;;81.53;;
16308;SDS011;8263;48.880;9.276;2023-06-26T09:51:57;84.22;;;78.82;;
16308;SDS011;8263;48.880;9.276;2023-06-26T09:54:26;82.95;;;77.65;;
16308;SDS011;8263;48.880;9.276;2023-06-26T09:56:55;84.55;;;79.00;;
16308;SDS011;8263;48.880;9.276;2023-06-26T09:59:21;85.15;;;79.75;;
16308;SDS011;8263;48.880;9.276;2023-06-26T10:01:49;85.65;;;80.07;;
16308;SDS011;8263;48.880;9.276;2023-06-26T10:04:26;82.07;;;76.78;;
16308;SDS011;8263;48.880;9.276;2023-06-26T10:06:54;85.75;;;80.05;;
16308;SDS011;8263;48.880;9.276;2023-06-26T10:09:23;84.00;;;78.53;;
16308;SDS011;8263;48.880;9.276;2023-06-26T10:11:51;82.55;;;77.15;;
16308;SDS011;8263;48.880;9.276;2023-06-26T10:14:21;82.18;;;76.88;;
16308;SDS011;8263;48.880;9.276;2023-06-26T10:16:49;81.50;;;76.10;;
16308;SDS011;8263;48.880;9.276;2023-06-26T10:19:17;83.30;;;77.72;;
16308;SDS011;8263;48.880;9.276;2023-06-26T10:21:50;81.07;;;75.78;;
16308;SDS011;8263;48.880;9.276;2023-06-26T10:24:18;83.40;;;77.85;;
16308;SDS011;8263;48.880;9.276;2023-06-26T10:26:45;81.22;;;76.03;;
16308;SDS011;8263;48.880;9.276;2023-06-26T10:29:15;80.55;;;75.22;;
16308;SDS011;8263;48.880;9.276;2023-06-26T10:31:43;77.78;;;72.63;;
16308;SDS011;8263;48.880;9.276;2023-06-26T10:34:11;83.03;;;77.53;;
16308;SDS011;8263;48.880;9.276;2023-06-26T10:36:37;79.93;;;74.65;;
16308;SDS011;8263;48.880;9.276;2023-06-26T10:39:06;78.25;;;73.15;;
16308;SDS011;8263;48.880;9.276;2023-06-26T10:41:36;78.18;;;73.18;;
16308;SDS011;8263;48.880;9.276;2023-06-26T10:44:09;77.60;;;72.60;;
16308;SDS011;8263;48.880;9.276;2023-06-26T10:46:48;77.95;;;72.95;;
16308;SDS011;8263;48.880;9.276;2023-06-26T10:49:14;76.63;;;71.72;;
16308;SDS011;8263;48.880;9.276;2023-06-26T10:51:45;79.35;;;74.25;;
16308;SDS011;8263;48.880;9.276;2023-06-26T10:54:14;77.60;;;72.60;;
16308;SDS011;8263;48.880;9.276;2023-06-26T10:56:41;74.97;;;69.93;;
16308;SDS011;8263;48.880;9.276;2023-06-26T10:59:15;77.45;;;72.43;;
16308;SDS011;8263;48.880;9.276;2023-06-26T11:01:42;76.72;;;71.80;;
16308;SDS011;8263;48.880;9.276;2023-06-26T11:04:10;76.32;;;71.35;;
16308;SDS011;8263;48.880;9.276;2023-06-26T11:06:37;76.20;;;71.28;;
16308;SDS011;8263;48.880;9.276;2023-06-26T11:09:08;78.32;;;73.22;;
16308;SDS011;8263;48.880;9.276;2023-06-26T11:11:56;77.57;;;72.43;;
16308;SDS011;8263;48.880;9.276;2023-06-26T11:14:24;73.40;;;68.70;;
16308;SDS011;8263;48.880;9.276;2023-06-26T11:16:52;76.05;;;71.05;;
16308;SDS011;8263;48.880;9.276;2023-06-26T11:19:19;76.20;;;71.20;;
16308;SDS011;8263;48.880;9.276;2023-06-26T11:21:47;73.72;;;68.90;;
16308;SDS011;8263;48.880;9.276;2023-06-26T11:24:14;74.53;;;69.72;;
16308;SDS011;8263;48.880;9.276;2023-06-26T11:26:41;75.28;;;70.32;;
16308;SDS011;8263;48.880;9.276;2023-06-26T11:29:09;75.70;;;70.78;;
16308;SDS011;8263;48.880;9.276;2023-06-26T11:31:37;72.32;;;67.55;;
16308;SDS011;8263;48.880;9.276;2023-06-26T11:34:05;72.70;;;67.93;;
16308;SDS011;8263;48.880;9.276;2023-06-26T11:36:32;71.45;;;66.85;;
16308;SDS011;8263;48.880;9.276;2023-06-26T11:39:02;74.43;;;69.63;;
16308;SDS011;8263;48.880;9.276;2023-06-26T11:41:30;72.47;;;67.78;;
16308;SDS011;8263;48.880;9.276;2023-06-26T11:43:59;71.53;;;66.85;;
16308;SDS011;8263;48.880;9.276;2023-06-26T11:46:28;72.57;;;67.75;;
16308;SDS011;8263;48.880;9.276;2023-06-26T11:48:54;72.57;;;67.88;;
16308;SDS011;8263;48.880;9.276;2023-06-26T11:51:21;70.65;;;65.95;;
16308;SDS011;8263;48.880;9.276;2023-06-26T11:53:47;72.07;;;67.07;;
16308;SDS011;8263;48.880;9.276;2023-06-26T11:56:15;73.20;;;68.30;;
16308;SDS011;8263;48.880;9.276;2023-06-26T11:58:55;72.55;;;67.82;;
16308;SDS011;8263;48.880;9.276;2023-06-26T12:01:21;70.85;;;66.25;;
16308;SDS011;8263;48.880;9.276;2023-06-26T12:03:50;73.78;;;69.03;;
16308;SDS011;8263;48.880;9.276;2023-06-26T12:06:17;71.82;;;67.22;;
16308;SDS011;8263;48.880;9.276;2023-06-26T12:08:43;73.07;;;68.32;;
16308;SDS011;8263;48.880;9.276;2023-06-26T12:11:13;70.55;;;65.88;;
16308;SDS011;8263;48.880;9.276;2023-06-26T12:13:39;68.93;;;64.43;;
16308;SDS011;8263;48.880;9.276;2023-06-26T12:16:08;71.57;;;66.97;;
16308;SDS011;8263;48.880;9.276;2023-06-26T12:18:34;70.20;;;65.60;;
16308;SDS011;8263;48.880;9.276;2023-06-26T12:21:05;67.10;;;62.75;;
16308;SDS011;8263;48.880;9.276;2023-06-26T12:23:32;70.88;;;66.22;;
16308;SDS011;8263;48.880;9.276;2023-06-26T12:28:41;68.65;;;64.15;;
16308;SDS011;8263;48.880;9.276;2023-06-26T12:31:13;70.03;;;65.53;;
16308;SDS011;8263;48.880;9.276;2023-06-26T12:33:42;68.32;;;63.70;;
16308;SDS011;8263;48.880;9.276;2023-06-26T12:36:11;65.15;;;60.92;;
16308;SDS011;8263;48.880;9.276;2023-06-26T12:38:38;69.82;;;65.18;;
16308;SDS011;8263;48.880;9.276;2023-06-26T12:41:05;68.38;;;63.92;;
16308;SDS011;8263;48.880;9.276;2023-06-26T12:43:32;67.90;;;63.50;;
16308;SDS011;8263;48.880;9.276;2023-06-26T12:45:59;68.53;;;63.97;;
16308;SDS011;8263;48.880;9.276;2023-06-26T12:48:36;68.63;;;64.03;;
16308;SDS011;8263;48.880;9.276;2023-06-26T12:51:07;65.22;;;60.90;;
16308;SDS011;8263;48.880;9.276;2023-06-26T12:53:35;68.55;;;63.83;;
16308;SDS011;8263;48.880;9.276;2023-06-26T12:56:02;67.80;;;63.40;;
16308;SDS011;8263;48.880;9.276;2023-06-26T12:58:28;65.53;;;61.20;;
16308;SDS011;8263;48.880;9.276;2023-06-26T13:00:55;67.50;;;62.90;;
16308;SDS011;8263;48.880;9.276;2023-06-26T13:03:22;65.95;;;61.55;;
16308;SDS011;8263;48.880;9.276;2023-06-26T13:05:49;65.35;;;61.15;;
16308;SDS011;8263;48.880;9.276;2023-06-26T13:08:16;68.28;;;63.78;;
16308;SDS011;8263;48.880;9.276;2023-06-26T13:10:45;66.28;;;61.97;;
16308;SDS011;8263;48.880;9.276;2023-06-26T13:13:11;67.55;;;63.15;;
16308;SDS011;8263;48.880;9.276;2023-06-26T13:15:38;66.28;;;61.95;;
16308;SDS011;8263;48.880;9.276;2023-06-26T13:18:04;67.63;;;63.22;;
16308;SDS011;8263;48.880;9.276;2023-06-26T13:20:31;67.50;;;63.10;;
16308;SDS011;8263;48.880;9.276;2023-06-26T13:22:58;65.55;;;61.25;;
16308;SDS011;8263;48.880;9.276;2023-06-26T13:25:24;67.38;;;62.88;;
16308;SDS011;8263;48.880;9.276;2023-06-26T13:27:52;65.90;;;61.65;;
16308;SDS011;8263;48.880;9.276;2023-06-26T13:30:19;67.70;;;63.30;;
16308;SDS011;8263;48.880;9.276;2023-06-26T13:32:46;65.75;;;61.45;;
16308;SDS011;8263;48.880;9.276;2023-06-26T13:35:13;64.22;;;60.08;;
16308;SDS011;8263;48.880;9.276;2023-06-26T13:37:39;63.97;;;59.75;;
16308;SDS011;8263;48.880;9.276;2023-06-26T13:40:08;64.03;;;59.92;;
16308;SDS011;8263;48.880;9.276;2023-06-26T13:42:35;67.18;;;62.80;;
16308;SDS011;8263;48.880;9.276;2023-06-26T13:45:04;64.68;;;60.55;;
16308;SDS011;8263;48.880;9.276;2023-06-26T13:47:30;65.95;;;61.60;;
16308;SDS011;8263;48.880;9.276;2023-06-26T13:49:59;63.25;;;59.15;;
16308;SDS011;8263;48.880;9.276;2023-06-26T13:52:26;64.40;;;60.20;;
16308;SDS011;8263;48.880;9.276;2023-06-26T13:54:54;66.30;;;62.00;;
16308;SDS011;8263;48.880;9.276;2023-06-26T13:57:20;65.25;;;61.03;;
16308;SDS011;8263;48.880;9.276;2023-06-26T13:59:48;64.88;;;60.58;;
16308;SDS011;8263;48.880;9.276;2023-06-26T14:02:17;62.65;;;58.58;;
16308;SDS011;8263;48.880;9.276;2023-06-26T14:04:44;66.70;;;62.38;;
16308;SDS011;8263;48.880;9.276;2023-06-26T14:07:11;65.82;;;61.53;;
16308;SDS011;8263;48.880;9.276;2023-06-26T14:09:39;65.20;;;60.60;;
16308;SDS011;8263;48.880;9.276;2023-06-26T14:12:06;62.83;;;58.60;;
16308;SDS011;8263;48.880;9.276;2023-06-26T14:14:33;75.20;;;69.30;;
16308;SDS011;8263;48.880;9.276;2023-06-26T14:17:00;66.03;;;61.63;;
16308;SDS011;8263;48.880;9.276;2023-06-26T14:19:28;67.07;;;62.58;;
16308;SDS011;8263;48.880;9.276;2023-06-26T14:21:55;66.43;;;62.13;;
16308;SDS011;8263;48.880;9.276;2023-06-26T14:24:21;66.03;;;61.80;;
16308;SDS011;8263;48.880;9.276;2023-06-26T14:26:48;66.70;;;62.30;;